Woodland Park Weather Observations

home  gauges   today   yesterday   NOAA reports   graphs 
this month    this year    monthly records   extremes  

Observations from 10/23/2018 10:40 am back to 10/20/2018 10:40 am half hourly.

 

Observations previous 72 hours
 
Date/Time
MST
 
Temp
°F
App
Temp
°F
Heat
Index
°F
Wind
Chill
°F
Dew
Point
°F
Rel
Hum
%
 
Dir
 
 
Spd
kph
Wind
Gust
kph
 
Speed
MPH
 
Gust
MPH
Press
MSL
in
Rain
Since 12am
in
23/10:40am 45.5 45.5 45.5 35.6 68 1.3 4.0 30.31 0.00 0 0
23/10:10am 45.1 45.1 45.1 32.5 61 0.7 2.7 30.31 0.00 0 0
23/09:40am 46.2 46.2 46.2 31.8 57 2.0 4.0 30.31 0.00 0 0
23/09:10am 42.6 42.6 42.6 28.5 57 0.7 2.7 30.31 0.00 0 0
23/08:40am 42.1 42.1 42.1 29.2 60 0.0 2.0 30.32 0.00 0 0
23/08:10am 40.6 40.6 40.6 28.3 61 0.0 0.0 30.31 0.00 0 0
23/07:40am 38.3 38.3 38.3 27.2 64 1.3 2.0 30.31 0.00 0 0
23/07:10am 36.5 36.5 36.5 25.5 64 0.0 0.0 30.31 0.00 0 0
23/06:40am 37.4 37.4 37.4 26.7 65 0.0 1.3 30.31 0.00 0 0
23/06:10am 38.3 38.3 38.3 28.3 67 0.0 1.3 30.31 0.00 0 0
23/05:40am 35.8 35.8 35.8 28.3 74 0.0 0.7 30.31 0.00 0 0
23/05:10am 37.2 37.2 37.2 30.4 76 0.0 4.0 30.31 0.00 0 0
23/05:00am 37.4 37.4 37.4 31.8 80 0.0 0.7 30.30 0.00 0 0
23/04:37am 38.1 38.1 38.1 31.9 78 0.7 2.0 30.30 0.00 0 0
23/04:07am 37.6 37.6 37.6 33.2 84 0.0 1.3 30.30 0.00 0 0
23/03:37am 38.8 38.8 38.8 34.4 84 1.3 2.0 30.29 0.00 0 0
23/03:07am 39.9 39.9 39.9 34.2 80 2.7 4.0 30.30 0.00 0 0
23/02:37am 39.4 39.4 39.4 34.0 81 2.7 4.0 30.32 0.00 0 0
23/02:07am 40.1 40.1 38.1 32.8 75 3.4 4.0 30.31 0.00 0 0
23/01:37am 41.4 41.4 41.4 30.5 65 2.7 2.7 30.30 0.00 0 0
23/01:07am 41.9 41.9 41.9 30.2 63 2.7 4.0 30.30 0.00 0 0
23/12:37am 42.4 42.4 40.7 29.9 61 3.4 5.4 30.31 0.00 0 0
23/12:07am 42.6 42.6 42.6 29.3 59 2.7 4.0 30.31 0.00 0 0
22/11:37pm 43.5 43.5 39.9 28.4 55 6.0 7.4 30.31 0.00 0 0
22/11:07pm 45.5 45.5 45.5 27.9 50 2.7 4.0 30.32 0.00 0 0
22/10:37pm 46.6 46.6 44.4 27.9 48 4.7 6.7 30.31 0.00 0 0
22/09:40pm 47.7 47.7 44.8 23.9 39 6.0 13.4 30.32 0.00 0 0
22/09:10pm 48.0 48.0 45.3 22.4 36 6.0 11.4 30.32 0.00 0 0
22/08:40pm 48.6 48.6 47.2 22.8 36 4.0 8.1 30.31 0.00 0 0
22/08:10pm 49.5 49.5 47.7 21.6 33 4.7 9.4 30.31 0.00 0 0
22/07:40pm 50.0 50.0 48.4 20.6 31 4.7 8.7 30.31 0.00 0 0
22/07:10pm 50.4 50.4 47.7 20.9 31 6.7 9.4 30.30 0.00 0 0
22/06:40pm 50.9 50.9 48.7 21.4 31 6.0 10.7 30.29 0.00 0 0
22/06:10pm 51.6 51.6 50.3 21.2 30 4.7 11.4 30.29 0.00 0 0
22/05:40pm 52.2 52.2 50.5 20.1 28 5.4 9.4 30.29 0.00 0 0
22/05:10pm 54.0 54.0 52.3 17.0 23 6.0 14.8 30.29 0.00 0 0
22/04:40pm 54.0 54.0 52.3 17.0 23 6.0 8.7 30.28 0.00 0 0
22/04:10pm 55.6 55.6 54.6 19.4 24 5.4 9.4 30.28 0.00 0 0
22/03:40pm 55.8 55.8 55.1 19.5 24 4.7 10.1 30.27 0.00 0 0
22/03:10pm 56.1 56.1 54.9 18.8 23 6.0 8.7 30.27 0.00 0 0
22/02:40pm 57.7 57.7 57.1 18.1 21 5.4 13.4 30.27 0.00 0 0
22/02:10pm 57.7 57.7 56.9 18.1 21 6.0 8.1 30.28 0.00 0 0
22/01:40pm 57.6 57.6 57.2 16.8 20 4.7 8.7 30.28 0.00 0 0
22/01:10pm 57.4 57.4 57.4 17.8 21 3.4 9.4 30.29 0.00 0 0
22/12:40pm 56.3 56.3 55.4 19.0 23 5.4 8.7 30.29 0.00 0 0
22/12:10pm 55.8 55.8 55.5 17.5 22 4.0 6.0 30.30 0.00 0 0
22/11:40am 56.7 56.7 56.7 18.3 22 2.7 7.4 30.31 0.00 0 0
22/11:10am 54.5 54.5 54.5 13.1 19 1.3 5.4 30.31 0.00 0 0
 
Date/Time
MST
 
Temp
°F
App
Temp
°F
Heat
Index
°F
Wind
Chill
°F
Dew
Point
°F
Rel
Hum
%
 
Dir
 
 
Spd
km/h
Wind
Gust
km/h
 
Speed
MPH
 
Gust
MPH
Press
MSL
in
Rain
Since 9am
in
 
Solar
W/m2
 
UV
Index
22/10:40am 54.7 54.7 54.7 15.5 21 2.0 3.4 30.32 0.00 0 0
22/10:10am 51.8 51.8 51.8 18.9 27 0.0 1.3 30.32 0.00 0 0
22/09:40am 49.1 49.1 49.1 18.2 29 0.0 1.3 30.32 0.00 0 0
22/09:10am 45.0 45.0 45.0 20.9 38 0.0 0.0 30.32 0.00 0 0
22/08:40am 42.8 42.8 42.8 20.8 41 0.0 0.7 30.32 0.00 0 0
22/08:10am 39.4 39.4 39.4 19.8 45 0.0 0.0 30.31 0.00 0 0
22/07:40am 39.6 39.6 39.6 18.9 43 0.0 0.0 30.30 0.00 0 0
22/07:10am 39.6 39.6 39.6 18.9 43 0.0 2.0 30.29 0.00 0 0
22/06:40am 40.5 40.5 40.5 20.3 44 0.7 2.0 30.29 0.00 0 0
22/06:10am 40.6 40.6 40.6 19.4 42 0.7 1.3 30.29 0.00 0 0
22/05:40am 40.5 40.5 40.5 19.2 42 0.0 0.0 30.29 0.00 0 0
22/05:10am 41.2 41.2 41.2 19.3 41 0.0 0.0 30.29 0.00 0 0
22/05:10am 41.2 41.2 41.2 19.3 41 0.0 0.0 30.29 0.00 0 0
22/04:36am 41.7 41.7 41.7 19.7 41 0.7 1.3 30.29 0.00 0 0
22/04:06am 43.7 43.7 43.7 20.3 39 0.0 1.3 30.29 0.00 0 0
22/03:36am 42.6 42.6 42.6 20.0 40 0.0 0.0 30.28 0.00 0 0
22/03:06am 43.5 43.5 43.5 20.2 39 0.0 0.0 30.28 0.00 0 0
22/02:36am 41.2 41.2 41.2 19.2 41 0.0 0.0 30.28 0.00 0 0
22/02:06am 41.7 41.7 41.7 20.8 43 0.0 0.0 30.29 0.00 0 0
22/01:36am 40.5 40.5 40.5 20.8 45 0.0 0.0 30.29 0.00 0 0
22/01:06am 40.6 40.6 40.6 20.4 44 0.0 0.0 30.28 0.00 0 0
22/12:36am 39.9 39.9 39.9 20.8 46 0.0 0.0 30.29 0.00 0 0
22/12:06am 40.6 40.6 40.6 20.4 44 0.0 0.0 30.28 0.00 0 0
21/11:36pm 41.7 41.7 41.7 20.3 42 0.0 0.0 30.29 0.00 0 0
21/11:06pm 41.4 41.4 41.4 20.0 42 0.0 0.0 30.29 0.00 0 0
21/10:10pm 43.5 43.5 43.5 20.8 40 0.0 1.3 30.29 0.00 0 0
21/09:40pm 43.0 43.0 43.0 20.3 40 0.0 0.0 30.29 0.00 0 0
21/09:10pm 42.6 42.6 42.6 20.6 41 0.0 0.0 30.29 0.00 0 0
21/08:40pm 44.1 44.1 44.1 19.5 37 0.0 0.0 30.29 0.00 0 0
21/08:10pm 46.0 46.0 46.0 17.9 32 0.0 0.0 30.29 0.00 0 0
21/07:40pm 46.2 46.2 46.2 14.9 28 0.0 0.0 30.29 0.00 0 0
21/07:10pm 50.2 50.2 50.2 13.8 23 2.0 3.4 30.28 0.00 0 0
21/06:40pm 52.7 52.7 52.0 13.9 21 4.0 5.4 30.27 0.00 0 0
21/06:10pm 54.1 54.1 54.1 12.8 19 2.7 4.0 30.27 0.00 0 0
21/05:40pm 56.7 56.7 56.5 16.1 20 4.0 5.4 30.26 0.00 0 0
21/05:10pm 58.8 58.8 58.8 16.7 19 4.0 6.7 30.26 0.00 0 0
21/04:40pm 61.9 61.9 61.9 15.2 16 2.7 5.4 30.25 0.00 0 0
21/04:10pm 63.7 63.7 63.7 13.6 14 3.4 6.0 30.26 0.00 0 0
21/03:40pm 65.3 65.3 65.3 13.2 13 2.0 4.7 30.25 0.00 0 0
21/03:10pm 63.1 63.1 63.1 13.2 14 2.7 6.7 30.26 0.00 0 0
21/02:40pm 66.2 66.2 66.2 12.1 12 0.7 8.1 30.26 0.00 0 0
21/02:10pm 63.1 63.1 63.1 13.2 14 2.0 6.0 30.27 0.00 0 0
21/01:40pm 59.7 59.7 59.7 14.9 17 2.0 4.7 30.28 0.00 0 0
21/01:10pm 61.9 61.9 61.9 15.2 16 2.0 4.7 30.28 0.00 0 0
21/12:40pm 60.3 60.3 60.3 15.3 17 2.0 6.0 30.29 0.00 0 0
21/12:10pm 58.3 58.3 58.3 16.2 19 4.0 4.7 30.30 0.00 0 0
21/11:40am 57.7 57.7 57.7 15.8 19 2.0 3.4 30.31 0.00 0 0
21/11:10am 55.8 55.8 55.8 17.5 22 0.7 3.4 30.32 0.00 0 0
 
Date/Time
WST
 
Temp
°F
App
Temp
°F
Heat
Index
°F
Wind
Chill
°F
Dew
Point
°F
Rel
Hum
%
 
Dir
 
 
Spd
km/h
Wind
Gust
km/h
 
Spd
kts
 
Gust
kts
Press
MSL
in
Rain
Since 9am
in
 
Solar
W/m2
 
UV
Index
21/10:40am 53.1 53.1 53.1 16.3 23 0.0 4.7 30.33 0.00 0 0
21/10:10am 51.1 51.1 51.1 18.3 27 1.3 6.0 30.35 0.00 0 0
21/09:40am 50.9 50.9 50.9 16.4 25 2.7 4.7 30.35 0.00 0 0
21/09:10am 45.3 45.3 45.3 17.9 33 0.7 4.7 30.36 0.00 0 0
21/08:40am 41.9 41.9 41.9 17.6 37 1.3 4.0 30.36 0.00 0 0
21/08:10am 40.8 40.8 40.8 17.2 38 0.0 2.0 30.35 0.00 0 0
21/07:50am 39.2 39.2 39.2 16.3 39 0.0 2.0 30.34 0.00 0 0
21/07:37am 38.5 38.5 38.5 15.0 38 0.0 0.0 30.35 0.00 0 0
21/07:07am 37.9 37.9 37.9 14.6 38 0.0 1.3 30.34 0.00 0 0
21/06:37am 37.4 37.4 37.4 14.7 39 0.0 0.0 30.34 0.00 0 0
21/06:07am 39.4 39.4 39.4 14.6 36 2.7 4.0 30.33 0.00 0 0
21/05:37am 38.3 38.3 38.3 12.3 34 2.0 2.7 30.34 0.00 0 0
21/05:07am 40.1 40.1 40.1 11.8 31 2.7 4.7 30.34 0.00 0 0
21/04:37am 40.6 40.6 40.6 11.6 30 1.3 3.4 30.34 0.00 0 0
21/04:07am 40.5 40.5 40.5 11.4 30 0.7 2.0 30.34 0.00 0 0
21/03:37am 40.8 40.8 40.8 11.0 29 0.7 3.4 30.34 0.00 0 0
21/03:07am 39.0 39.0 39.0 11.6 32 0.7 1.3 30.35 0.00 0 0
21/02:37am 41.0 41.0 41.0 11.9 30 0.0 0.0 30.35 0.00 0 0
21/02:07am 41.2 41.2 41.2 9.7 27 0.0 0.0 30.36 0.00 0 0
21/01:37am 41.0 41.0 41.0 9.5 27 0.0 0.0 30.36 0.00 0 0
21/01:07am 41.9 41.9 41.9 9.5 26 0.7 2.0 30.37 0.00 0 0
21/12:37am 41.2 41.2 41.2 8.8 26 0.0 0.0 30.37 0.00 0 0
21/12:07am 39.2 39.2 39.2 10.3 30 1.3 2.0 30.37 0.00 0 0
20/11:37pm 38.3 38.3 38.3 13.0 35 0.0 0.0 30.37 0.00 0 0
20/11:07pm 38.7 38.7 38.7 13.3 35 0.0 0.0 30.38 0.00 0 0
20/10:37pm 37.9 37.9 37.9 15.1 39 0.0 0.0 30.39 0.00 0 0
20/09:40pm 38.7 38.7 38.7 12.1 33 0.0 3.4 30.39 0.00 0 0
20/09:10pm 40.3 40.3 40.3 12.1 31 1.3 2.0 30.40 0.00 0 0
20/08:40pm 40.6 40.6 40.6 12.4 31 1.3 2.0 30.40 0.00 0 0
20/08:10pm 41.5 41.5 41.5 12.4 30 0.7 2.0 30.40 0.00 0 0
20/07:40pm 43.7 43.7 43.7 10.2 25 0.7 2.0 30.41 0.00 0 0
20/07:10pm 44.4 44.4 44.4 10.8 25 0.7 2.0 30.41 0.00 0 0
20/06:40pm 46.6 46.6 46.6 10.8 23 2.0 4.7 30.40 0.00 0 0
20/06:10pm 48.6 48.6 47.2 11.5 22 4.0 6.0 30.40 0.00 0 0
20/05:40pm 51.1 51.1 50.6 11.4 20 3.4 8.1 30.40 0.00 0 0
20/05:10pm 53.2 53.2 52.2 12.1 19 4.7 6.7 30.40 0.00 0 0
20/04:40pm 55.9 55.9 54.7 15.5 20 6.0 8.7 30.40 0.00 0 0
20/04:10pm 57.9 57.9 57.9 17.1 20 4.0 7.4 30.40 0.00 0 0
20/03:40pm 58.1 58.1 58.1 16.1 19 4.0 8.1 30.41 0.00 0 0
20/03:10pm 59.2 59.2 59.2 15.7 18 1.3 6.7 30.41 0.00 0 0
20/02:40pm 59.5 59.5 59.5 14.7 17 3.4 6.7 30.41 0.00 0 0
20/02:10pm 59.5 59.5 59.5 14.7 17 3.4 6.0 30.42 0.00 0 0
20/01:40pm 59.0 59.0 59.0 14.3 17 2.7 5.4 30.43 0.00 0 0
20/01:10pm 57.7 57.7 57.7 14.5 18 0.0 5.4 30.44 0.00 0 0
20/12:40pm 58.5 58.5 58.5 15.1 18 0.0 5.4 30.45 0.00 0 0
20/12:10pm 57.4 57.4 57.4 14.3 18 0.7 2.0 30.45 0.00 0 0
20/11:40am 55.4 55.4 55.4 15.0 20 2.0 4.7 30.46 0.00 0 0
20/11:10am 52.0 52.0 51.6 11.0 19 3.4 7.4 30.47 0.00 0 0
20/10:40am 52.5 52.5 52.5 12.6 20 2.7 6.0 30.48 0.00 0 0
 
Date/Time
MST
 
Temp
°F
App
Temp
°F
Heat
Index
°F
Wind
Chill
°F
Dew
Point
°F
Rel
Hum
%
 
Dir
 
 
Spd
km/h
Wind
Gust
km/h
 
Speed
MPH
 
Gust
MPH
Press
MSL
in
Rain
Since 9am
in
 
Solar
W/m2
 
UV
Index




page updated 10/23/2018 10:40:01 AM
powered by  cumulus v1.9.4 (1099)
cumulus software support forum